Time;durP1;ratioP1;P1;durP2;ratioP2;P2;SDS_P1;SDS_P2;PMS_P1;PMS_P2;Temp;Humidity;BMP_temperature;BMP_pressure;BME280_temperature;BME280_humidity;BME280_pressure;Samples;Min_cycle;Max_cycle;Signal;HPM_P1;HPM_P2
2021/10/25 00:02:02;;;;;;;19.27;18.85;;;;;;;;;;5069241;28;20090;-34
2021/10/25 00:04:29;;;;;;;18.60;18.20;;;;;;;;;;5064521;28;20555;-34
2021/10/25 00:06:56;;;;;;;19.10;18.55;;;;;;;;;;5065643;28;20040;-34
2021/10/25 00:09:23;;;;;;;18.27;17.90;;;;;;;;;;5073839;28;20127;-34
2021/10/25 00:11:50;;;;;;;18.77;17.95;;;;;;;;;;5071168;28;20056;-34
2021/10/25 00:14:17;;;;;;;20.48;20.08;;;;;;;;;;5072528;28;20045;-34
2021/10/25 00:16:45;;;;;;;17.08;16.88;;;;;;;;;;5063665;28;20041;-35
2021/10/25 00:19:12;;;;;;;17.52;17.17;;;;;;;;;;5068097;28;20072;-33
2021/10/25 00:21:39;;;;;;;18.63;18.38;;;;;;;;;;5066608;28;20037;-34
2021/10/25 00:24:06;;;;;;;17.15;16.58;;;;;;;;;;5067300;28;20128;-33
2021/10/25 00:26:33;;;;;;;16.67;16.27;;;;;;;;;;5069988;28;20060;-34
2021/10/25 00:29:00;;;;;;;17.42;16.65;;;;;;;;;;5065823;28;20040;-33
2021/10/25 00:31:27;;;;;;;16.88;16.67;;;;;;;;;;5070448;28;20048;-33
2021/10/25 00:33:54;;;;;;;17.25;17.02;;;;;;;;;;5073308;28;20052;-33
2021/10/25 00:36:20;;;;;;;18.33;17.83;;;;;;;;;;5065518;28;20065;-34
2021/10/25 00:38:47;;;;;;;17.02;16.52;;;;;;;;;;5063211;28;20037;-34
2021/10/25 00:41:14;;;;;;;19.38;18.45;;;;;;;;;;5067997;28;20573;-34
2021/10/25 00:43:41;;;;;;;19.70;19.00;;;;;;;;;;5067875;28;20079;-34
2021/10/25 00:46:08;;;;;;;17.98;17.20;;;;;;;;;;5054783;28;20076;-34
2021/10/25 00:48:35;;;;;;;22.70;21.77;;;;;;;;;;5068122;28;20036;-34
2021/10/25 00:51:03;;;;;;;20.55;19.83;;;;;;;;;;5068597;28;20068;-34
2021/10/25 00:53:30;;;;;;;19.75;19.25;;;;;;;;;;5058701;28;20037;-33
2021/10/25 00:55:58;;;;;;;22.33;20.90;;;;;;;;;;5068102;28;20393;-34
2021/10/25 00:58:25;;;;;;;19.65;18.95;;;;;;;;;;5055425;28;20067;-34
2021/10/25 01:00:52;;;;;;;20.33;19.48;;;;;;;;;;5070305;28;20361;-34
2021/10/25 01:03:19;;;;;;;20.83;19.88;;;;;;;;;;5069057;28;20041;-34
2021/10/25 01:05:45;;;;;;;19.35;18.85;;;;;;;;;;5071362;28;20044;-33
2021/10/25 01:08:12;;;;;;;18.63;18.25;;;;;;;;;;5069376;28;20041;-34
2021/10/25 01:10:40;;;;;;;19.27;18.48;;;;;;;;;;5067607;28;20556;-34
2021/10/25 01:13:08;;;;;;;17.70;17.30;;;;;;;;;;5064642;28;20422;-34
2021/10/25 01:15:35;;;;;;;19.02;18.48;;;;;;;;;;5070048;28;20028;-34
2021/10/25 01:18:02;;;;;;;19.25;18.85;;;;;;;;;;5054115;28;20037;-33
2021/10/25 01:20:30;;;;;;;19.80;19.30;;;;;;;;;;5065666;28;20041;-34
2021/10/25 01:22:57;;;;;;;19.23;18.23;;;;;;;;;;5059738;28;20059;-33
2021/10/25 01:25:24;;;;;;;18.65;18.25;;;;;;;;;;5070607;28;20039;-33
2021/10/25 01:27:51;;;;;;;17.00;16.40;;;;;;;;;;5069651;28;20063;-33
2021/10/25 01:30:18;;;;;;;20.05;19.67;;;;;;;;;;5070644;28;20127;-34
2021/10/25 01:32:45;;;;;;;18.98;18.48;;;;;;;;;;5069254;28;20108;-33
2021/10/25 01:35:12;;;;;;;19.35;18.83;;;;;;;;;;5069508;28;20473;-33
2021/10/25 01:37:39;;;;;;;20.05;19.48;;;;;;;;;;5059817;28;20036;-33
2021/10/25 01:40:09;;;;;;;19.65;19.15;;;;;;;;;;5063116;28;20048;-34
2021/10/25 01:42:36;;;;;;;22.73;22.23;;;;;;;;;;5058430;28;20037;-33
2021/10/25 01:45:04;;;;;;;20.48;19.98;;;;;;;;;;5063621;28;20045;-34
2021/10/25 01:47:30;;;;;;;17.10;16.70;;;;;;;;;;5068057;28;20055;-33
2021/10/25 01:49:58;;;;;;;19.23;18.67;;;;;;;;;;5070312;28;20392;-33
2021/10/25 01:52:24;;;;;;;18.98;17.98;;;;;;;;;;5067109;28;20036;-33
2021/10/25 01:54:51;;;;;;;18.23;17.98;;;;;;;;;;5066210;28;20481;-34
2021/10/25 01:57:18;;;;;;;19.08;18.63;;;;;;;;;;5070186;28;20036;-33
2021/10/25 01:59:45;;;;;;;19.52;18.85;;;;;;;;;;5069173;28;20490;-34
2021/10/25 02:02:11;;;;;;;16.17;15.93;;;;;;;;;;5070651;28;20044;-34
2021/10/25 02:04:38;;;;;;;18.75;18.42;;;;;;;;;;5067908;28;20036;-33
2021/10/25 02:07:05;;;;;;;18.75;18.35;;;;;;;;;;5057684;28;20036;-34
2021/10/25 02:09:32;;;;;;;16.52;16.20;;;;;;;;;;5071328;28;20036;-33
2021/10/25 02:11:59;;;;;;;18.60;18.30;;;;;;;;;;5070144;28;20032;-34
2021/10/25 02:14:25;;;;;;;18.33;17.98;;;;;;;;;;5070340;28;20041;-34
2021/10/25 02:16:52;;;;;;;20.35;19.85;;;;;;;;;;5066196;28;20163;-34
2021/10/25 02:19:19;;;;;;;17.63;17.40;;;;;;;;;;5060292;28;20045;-34
2021/10/25 02:21:46;;;;;;;17.33;17.02;;;;;;;;;;5066987;28;20110;-34
2021/10/25 02:24:13;;;;;;;18.92;18.52;;;;;;;;;;5069630;28;20040;-33
2021/10/25 02:26:39;;;;;;;18.35;18.05;;;;;;;;;;5069605;28;20434;-33
2021/10/25 02:29:06;;;;;;;19.30;18.48;;;;;;;;;;5066081;28;20041;-34
2021/10/25 02:31:33;;;;;;;18.67;18.25;;;;;;;;;;5069634;28;20047;-33
2021/10/25 02:34:00;;;;;;;20.27;19.88;;;;;;;;;;5062495;28;20033;-34
2021/10/25 02:36:27;;;;;;;20.95;20.13;;;;;;;;;;5067053;28;20025;-33
2021/10/25 02:38:54;;;;;;;18.80;18.27;;;;;;;;;;5067548;28;20040;-33
2021/10/25 02:41:21;;;;;;;20.50;19.90;;;;;;;;;;5066548;28;20661;-34
2021/10/25 02:43:48;;;;;;;21.48;20.90;;;;;;;;;;5069702;28;20043;-33
2021/10/25 02:46:15;;;;;;;19.52;19.20;;;;;;;;;;5066657;28;20699;-34
2021/10/25 02:48:44;;;;;;;21.85;20.95;;;;;;;;;;5064615;28;20072;-34
2021/10/25 02:51:12;;;;;;;21.08;20.60;;;;;;;;;;5087981;28;20474;-34
2021/10/25 02:53:40;;;;;;;18.80;18.50;;;;;;;;;;5065048;28;20048;-33
2021/10/25 02:56:07;;;;;;;17.23;16.98;;;;;;;;;;5070868;28;20438;-34
2021/10/25 02:58:34;;;;;;;17.70;17.40;;;;;;;;;;5057243;28;20037;-33
2021/10/25 03:01:01;;;;;;;19.25;19.05;;;;;;;;;;5067464;28;20032;-34
2021/10/25 03:03:27;;;;;;;20.40;20.02;;;;;;;;;;5073066;28;20109;-34
2021/10/25 03:05:54;;;;;;;19.25;18.75;;;;;;;;;;5066150;28;20044;-33
2021/10/25 03:08:22;;;;;;;19.25;18.90;;;;;;;;;;5064146;28;20041;-34
2021/10/25 03:10:48;;;;;;;18.95;18.65;;;;;;;;;;5066680;28;20048;-34
2021/10/25 03:13:15;;;;;;;20.95;20.58;;;;;;;;;;5069756;28;20358;-33
2021/10/25 03:15:42;;;;;;;18.70;18.50;;;;;;;;;;5064740;28;20075;-33
2021/10/25 03:18:09;;;;;;;20.83;20.42;;;;;;;;;;5071927;28;20796;-33
2021/10/25 03:20:36;;;;;;;19.52;19.17;;;;;;;;;;5072413;28;20040;-33
2021/10/25 03:23:03;;;;;;;18.58;18.00;;;;;;;;;;5058443;28;20048;-33
2021/10/25 03:25:30;;;;;;;19.10;18.08;;;;;;;;;;5069498;28;20055;-33
2021/10/25 03:27:57;;;;;;;21.52;21.00;;;;;;;;;;5071312;28;20115;-34
2021/10/25 03:30:24;;;;;;;17.58;17.38;;;;;;;;;;5071821;28;20442;-34
2021/10/25 03:32:51;;;;;;;16.52;16.30;;;;;;;;;;5071748;28;20028;-33
2021/10/25 03:35:19;;;;;;;17.67;17.33;;;;;;;;;;5072508;28;20093;-34
2021/10/25 03:37:46;;;;;;;18.80;18.50;;;;;;;;;;5071250;28;20119;-34
2021/10/25 03:40:13;;;;;;;16.67;16.48;;;;;;;;;;5069048;28;20044;-34
2021/10/25 03:42:43;;;;;;;19.75;19.23;;;;;;;;;;5063055;28;20091;-34
2021/10/25 03:47:55;;;;;;;19.13;18.67;;;;;;;;;;5054461;28;20099;-34
2021/10/25 03:50:25;;;;;;;20.00;19.58;;;;;;;;;;5063705;28;20652;-34
2021/10/25 03:55:28;;;;;;;19.83;19.15;;;;;;;;;;5060583;28;20045;-34
2021/10/25 04:30:35;;;;;;;19.95;19.48;;;;;;;;;;5068406;28;20119;-34
2021/10/25 04:33:02;;;;;;;19.63;19.20;;;;;;;;;;5070450;28;20037;-34
2021/10/25 04:35:29;;;;;;;19.80;19.40;;;;;;;;;;5070696;28;20037;-33
2021/10/25 04:37:56;;;;;;;17.58;17.27;;;;;;;;;;5070324;28;20067;-34
2021/10/25 04:40:23;;;;;;;21.08;20.70;;;;;;;;;;5057251;28;20048;-34
2021/10/25 04:42:51;;;;;;;22.27;20.77;;;;;;;;;;5066690;28;20049;-34
2021/10/25 04:45:19;;;;;;;20.23;19.75;;;;;;;;;;5060960;28;20040;-34
2021/10/25 04:47:46;;;;;;;21.98;21.25;;;;;;;;;;5057384;28;20448;-34
2021/10/25 04:50:13;;;;;;;17.90;17.70;;;;;;;;;;5068032;28;20500;-34
2021/10/25 04:52:40;;;;;;;21.67;21.17;;;;;;;;;;5071713;28;20045;-34
2021/10/25 04:55:07;;;;;;;19.33;19.00;;;;;;;;;;5070168;28;20048;-34
2021/10/25 04:57:33;;;;;;;20.27;19.92;;;;;;;;;;5066434;28;20108;-34
2021/10/25 05:00:00;;;;;;;22.52;22.13;;;;;;;;;;5065997;28;20453;-34
2021/10/25 05:02:27;;;;;;;19.60;19.20;;;;;;;;;;5065027;28;20120;-34
2021/10/25 05:04:55;;;;;;;18.40;18.00;;;;;;;;;;5055247;28;20119;-34
2021/10/25 05:07:22;;;;;;;22.00;21.60;;;;;;;;;;5072562;28;20067;-34
2021/10/25 05:09:48;;;;;;;21.40;20.88;;;;;;;;;;5070010;28;20086;-34
2021/10/25 05:12:15;;;;;;;22.55;22.05;;;;;;;;;;5070492;28;20060;-34
2021/10/25 05:14:42;;;;;;;21.27;20.27;;;;;;;;;;5069551;28;20044;-33
2021/10/25 05:17:09;;;;;;;23.63;23.13;;;;;;;;;;5058254;28;20110;-33
2021/10/25 05:19:36;;;;;;;20.60;19.88;;;;;;;;;;5069418;28;20137;-35
2021/10/25 05:22:03;;;;;;;20.15;19.55;;;;;;;;;;5069293;28;20045;-40
2021/10/25 05:24:30;;;;;;;21.92;21.52;;;;;;;;;;5051755;28;20045;-40
2021/10/25 05:26:58;;;;;;;18.25;17.50;;;;;;;;;;5065397;28;20140;-41
2021/10/25 05:29:24;;;;;;;18.98;18.33;;;;;;;;;;5064352;28;20040;-40
2021/10/25 05:31:51;;;;;;;19.23;18.33;;;;;;;;;;5058035;28;20048;-40
2021/10/25 05:34:18;;;;;;;18.23;18.02;;;;;;;;;;5064723;28;20049;-40
2021/10/25 05:36:45;;;;;;;18.73;18.45;;;;;;;;;;5069964;28;20076;-40
2021/10/25 05:39:11;;;;;;;23.92;23.52;;;;;;;;;;5060190;28;20033;-39
2021/10/25 05:41:39;;;;;;;23.35;22.70;;;;;;;;;;5064549;28;20127;-41
2021/10/25 05:44:06;;;;;;;19.75;19.02;;;;;;;;;;5070879;28;20043;-41
2021/10/25 05:46:33;;;;;;;21.90;21.23;;;;;;;;;;5070035;28;20033;-41
2021/10/25 05:49:00;;;;;;;20.77;20.38;;;;;;;;;;5070840;28;20068;-41
2021/10/25 05:51:27;;;;;;;19.02;18.45;;;;;;;;;;5062897;28;20438;-41
2021/10/25 05:53:54;;;;;;;19.98;19.42;;;;;;;;;;5061024;28;20107;-41
2021/10/25 05:56:27;;;;;;;22.45;21.58;;;;;;;;;;5071096;28;20036;-42
2021/10/25 05:58:54;;;;;;;18.38;18.15;;;;;;;;;;5069615;28;20388;-41
2021/10/25 06:01:26;;;;;;;20.92;20.52;;;;;;;;;;5065075;28;20056;-40
2021/10/25 06:04:05;;;;;;;20.17;19.67;;;;;;;;;;5068262;28;20048;-40
2021/10/25 06:06:33;;;;;;;20.73;20.30;;;;;;;;;;5064214;28;20044;-40
2021/10/25 06:09:00;;;;;;;22.17;21.83;;;;;;;;;;5052350;28;20037;-42
2021/10/25 06:11:28;;;;;;;21.27;20.92;;;;;;;;;;5063160;28;20033;-40
2021/10/25 06:13:59;;;;;;;19.65;19.35;;;;;;;;;;5056280;28;20036;-42
2021/10/25 06:16:37;;;;;;;28.35;26.75;;;;;;;;;;5061769;28;20037;-41
2021/10/25 06:19:07;;;;;;;21.38;20.75;;;;;;;;;;5063105;28;20032;-42
2021/10/25 06:21:35;;;;;;;22.73;22.33;;;;;;;;;;5054867;28;20459;-41
2021/10/25 06:24:02;;;;;;;19.48;19.17;;;;;;;;;;5060690;28;20045;-40
2021/10/25 06:26:29;;;;;;;18.88;18.15;;;;;;;;;;5059242;28;20078;-41
2021/10/25 06:28:56;;;;;;;23.25;22.05;;;;;;;;;;5070652;28;20040;-39
2021/10/25 06:31:25;;;;;;;21.48;20.88;;;;;;;;;;5069645;28;20049;-41
2021/10/25 06:33:52;;;;;;;22.60;21.67;;;;;;;;;;5068131;28;20543;-40
2021/10/25 06:36:21;;;;;;;19.25;18.85;;;;;;;;;;5072887;28;20492;-41
2021/10/25 06:41:18;;;;;;;28.23;25.75;;;;;;;;;;5073451;28;20524;-40
2021/10/25 06:43:45;;;;;;;28.55;25.67;;;;;;;;;;5067234;28;20508;-40
2021/10/25 06:46:12;;;;;;;29.33;26.30;;;;;;;;;;5068489;28;20487;-41
2021/10/25 06:48:39;;;;;;;22.52;21.75;;;;;;;;;;5070529;28;20043;-42
2021/10/25 06:51:06;;;;;;;21.20;20.40;;;;;;;;;;5072995;28;20037;-41
2021/10/25 06:53:33;;;;;;;19.63;18.55;;;;;;;;;;5054590;28;20037;-41
2021/10/25 06:56:01;;;;;;;20.25;19.48;;;;;;;;;;5074796;28;20384;-40
2021/10/25 06:58:28;;;;;;;20.35;19.67;;;;;;;;;;5071434;28;20048;-40
2021/10/25 07:00:58;;;;;;;21.35;20.40;;;;;;;;;;5073157;28;20067;-41
2021/10/25 07:03:26;;;;;;;19.70;19.05;;;;;;;;;;5072213;28;20041;-41
2021/10/25 07:05:53;;;;;;;21.33;20.83;;;;;;;;;;5056614;28;20045;-40
2021/10/25 07:08:20;;;;;;;23.15;22.17;;;;;;;;;;5064812;28;20064;-39
2021/10/25 07:10:47;;;;;;;20.55;19.88;;;;;;;;;;5066093;28;20469;-40
2021/10/25 07:13:16;;;;;;;20.40;19.48;;;;;;;;;;5056834;28;20037;-40
2021/10/25 07:15:49;;;;;;;17.98;16.92;;;;;;;;;;5071887;28;20690;-40
2021/10/25 07:18:23;;;;;;;18.00;17.50;;;;;;;;;;5060559;28;20483;-40
2021/10/25 08:10:30;;;;;;;22.73;21.17;;;;;;;;;;5047636;28;20660;-39
2021/10/25 08:12:59;;;;;;;22.80;21.15;;;;;;;;;;5060583;28;20171;-40
2021/10/25 08:15:41;;;;;;;22.42;20.77;;;;;;;;;;5064810;28;20040;-40
2021/10/25 08:21:05;;;;;;;21.42;19.80;;;;;;;;;;5067529;28;20057;-40
2021/10/25 08:23:32;;;;;;;18.17;17.23;;;;;;;;;;5064122;28;20480;-42
2021/10/25 08:25:58;;;;;;;16.20;15.68;;;;;;;;;;5071601;28;20124;-41
2021/10/25 08:28:25;;;;;;;13.55;13.13;;;;;;;;;;5070675;28;20056;-40
2021/10/25 08:30:52;;;;;;;7.93;7.43;;;;;;;;;;5067791;28;20418;-41
2021/10/25 08:36:23;;;;;;;7.20;6.18;;;;;;;;;;5067132;28;20111;-40
2021/10/25 08:41:35;;;;;;;3.17;2.90;;;;;;;;;;5072532;28;20056;-40
2021/10/25 08:44:05;;;;;;;3.28;2.95;;;;;;;;;;5070727;28;20369;-41
2021/10/25 08:46:32;;;;;;;3.85;3.42;;;;;;;;;;5054215;28;20369;-39
2021/10/25 08:48:59;;;;;;;2.28;2.17;;;;;;;;;;5071672;28;20095;-40
2021/10/25 08:51:26;;;;;;;6.18;3.08;;;;;;;;;;5069973;28;20362;-40
2021/10/25 08:53:53;;;;;;;2.85;2.70;;;;;;;;;;5071290;28;20756;-40
2021/10/25 08:56:20;;;;;;;3.13;2.35;;;;;;;;;;5067671;28;20047;-40
2021/10/25 08:58:49;;;;;;;3.42;2.95;;;;;;;;;;5055661;28;20823;-41
2021/10/25 09:01:24;;;;;;;5.40;2.75;;;;;;;;;;5061677;28;20048;-41
2021/10/25 09:04:20;;;;;;;3.88;3.67;;;;;;;;;;5060139;28;20037;-39
2021/10/25 09:06:51;;;;;;;4.93;4.43;;;;;;;;;;5067211;28;20053;-39
2021/10/25 09:09:18;;;;;;;5.32;4.90;;;;;;;;;;5059851;28;20052;-40
2021/10/25 09:12:00;;;;;;;4.65;3.60;;;;;;;;;;5060906;28;20455;-41
2021/10/25 09:14:27;;;;;;;5.88;3.60;;;;;;;;;;5068941;28;20044;-40
2021/10/25 09:16:56;;;;;;;3.05;2.28;;;;;;;;;;5068311;28;20577;-41
2021/10/25 09:19:23;;;;;;;2.88;2.67;;;;;;;;;;5064343;28;20040;-40
2021/10/25 09:21:51;;;;;;;2.38;2.22;;;;;;;;;;5058314;28;20056;-40
2021/10/25 09:24:19;;;;;;;3.72;3.30;;;;;;;;;;5063447;28;20609;-40
2021/10/25 09:27:06;;;;;;;3.10;2.03;;;;;;;;;;5051692;28;20053;-41
2021/10/25 09:29:37;;;;;;;4.57;1.58;;;;;;;;;;5058697;28;20061;-39
2021/10/25 09:32:15;;;;;;;1.27;1.20;;;;;;;;;;5062906;28;20409;-40
2021/10/25 09:37:12;;;;;;;1.42;1.20;;;;;;;;;;5063295;28;20524;-39
2021/10/25 09:39:52;;;;;;;1.90;1.13;;;;;;;;;;5065763;28;20068;-41
2021/10/25 09:50:22;;;;;;;1.15;1.00;;;;;;;;;;5067065;28;20048;-42
2021/10/25 09:52:48;;;;;;;0.90;0.90;;;;;;;;;;5065985;28;20041;-39
2021/10/25 09:55:17;;;;;;;2.92;1.00;;;;;;;;;;5069780;28;20078;-39
2021/10/25 10:00:15;;;;;;;1.55;0.88;;;;;;;;;;5068176;28;20052;-40
2021/10/25 10:02:45;;;;;;;1.02;0.90;;;;;;;;;;5070330;28;20055;-40
2021/10/25 10:05:14;;;;;;;1.42;0.73;;;;;;;;;;5067180;28;20024;-40
2021/10/25 10:07:42;;;;;;;2.85;0.90;;;;;;;;;;5060457;28;20484;-42
2021/10/25 10:10:12;;;;;;;1.73;1.35;;;;;;;;;;5069359;28;20041;-41
2021/10/25 10:12:40;;;;;;;0.82;0.82;;;;;;;;;;5067198;28;20474;-41
2021/10/25 10:15:08;;;;;;;1.60;0.90;;;;;;;;;;5060428;28;20385;-41
2021/10/25 10:17:42;;;;;;;1.10;1.10;;;;;;;;;;5063518;28;20114;-40
2021/10/25 10:20:13;;;;;;;1.77;1.02;;;;;;;;;;5065550;28;20047;-40
2021/10/25 10:22:41;;;;;;;0.80;0.80;;;;;;;;;;5066280;28;20105;-40
2021/10/25 10:25:09;;;;;;;2.40;0.80;;;;;;;;;;5069410;28;20052;-41
2021/10/25 10:27:36;;;;;;;3.40;0.80;;;;;;;;;;5069738;28;20032;-41
2021/10/25 10:30:07;;;;;;;0.80;0.80;;;;;;;;;;5062607;28;20424;-41
2021/10/25 10:32:34;;;;;;;0.80;0.80;;;;;;;;;;5064626;28;20064;-40
2021/10/25 10:35:03;;;;;;;0.80;0.80;;;;;;;;;;5065298;28;20116;-41
2021/10/25 10:37:33;;;;;;;1.63;1.00;;;;;;;;;;5065935;28;20043;-41
2021/10/25 10:40:00;;;;;;;0.95;0.80;;;;;;;;;;5068785;28;20061;-40
2021/10/25 10:42:28;;;;;;;0.80;0.80;;;;;;;;;;5065964;28;20044;-41
2021/10/25 10:44:59;;;;;;;1.67;0.90;;;;;;;;;;5064844;28;20128;-42
2021/10/25 10:48:04;;;;;;;0.77;0.77;;;;;;;;;;5060326;28;20049;-41
2021/10/25 10:50:29;;;;;;;1.08;1.08;;;;;;;;;;5061423;28;20057;-44
2021/10/25 10:53:00;;;;;;;0.93;0.90;;;;;;;;;;5061753;28;20124;-41
2021/10/25 10:55:29;;;;;;;6.07;0.90;;;;;;;;;;5070004;28;20037;-41
2021/10/25 11:00:40;;;;;;;3.88;0.80;;;;;;;;;;5059253;28;20041;-42
2021/10/25 11:03:16;;;;;;;0.80;0.80;;;;;;;;;;5067776;28;20127;-44
2021/10/25 11:05:45;;;;;;;0.90;0.90;;;;;;;;;;5065072;28;20040;-42
2021/10/25 11:08:17;;;;;;;1.33;0.90;;;;;;;;;;5057068;28;20040;-41
2021/10/25 11:10:56;;;;;;;0.80;0.80;;;;;;;;;;5063714;28;20044;-42
2021/10/25 11:13:23;;;;;;;0.80;0.80;;;;;;;;;;5074972;28;20044;-42
2021/10/25 11:16:11;;;;;;;1.58;0.80;;;;;;;;;;5060756;28;20037;-43
2021/10/25 11:18:41;;;;;;;1.13;0.80;;;;;;;;;;5062947;28;20044;-42
2021/10/25 11:21:24;;;;;;;2.70;1.00;;;;;;;;;;5053111;28;20048;-41
2021/10/25 11:23:51;;;;;;;0.95;0.70;;;;;;;;;;5071609;28;20046;-40
2021/10/25 11:26:21;;;;;;;0.73;0.73;;;;;;;;;;5062237;28;20087;-41
2021/10/25 11:28:54;;;;;;;0.80;0.80;;;;;;;;;;5068049;28;20049;-43
2021/10/25 11:31:20;;;;;;;1.65;0.80;;;;;;;;;;5071110;28;20039;-43
2021/10/25 11:33:48;;;;;;;1.10;1.10;;;;;;;;;;5068548;28;20033;-42
2021/10/25 11:36:16;;;;;;;1.20;0.90;;;;;;;;;;5070529;28;20102;-48
2021/10/25 11:38:43;;;;;;;0.80;0.80;;;;;;;;;;5070750;28;20126;-35
2021/10/25 11:41:10;;;;;;;1.63;0.70;;;;;;;;;;5056483;28;20064;-35
2021/10/25 11:43:37;;;;;;;0.80;0.80;;;;;;;;;;5073250;28;20128;-35
2021/10/25 11:46:18;;;;;;;0.80;0.80;;;;;;;;;;5069080;28;20379;-35
2021/10/25 11:48:56;;;;;;;0.93;0.70;;;;;;;;;;5072940;28;20052;-35
2021/10/25 11:51:23;;;;;;;1.17;1.17;;;;;;;;;;5069830;28;20519;-35
2021/10/25 11:53:57;;;;;;;2.25;0.70;;;;;;;;;;5071526;28;20048;-35
2021/10/25 11:56:24;;;;;;;2.25;0.90;;;;;;;;;;5062191;28;20113;-35
2021/10/25 11:58:52;;;;;;;3.97;0.90;;;;;;;;;;5069005;28;20040;-35
2021/10/25 12:01:19;;;;;;;3.35;0.80;;;;;;;;;;5065537;28;20047;-35
2021/10/25 12:03:46;;;;;;;2.67;0.80;;;;;;;;;;5071259;28;20380;-35
2021/10/25 12:06:21;;;;;;;4.70;0.90;;;;;;;;;;5070825;28;20040;-34
2021/10/25 12:09:04;;;;;;;0.80;0.80;;;;;;;;;;5071298;28;20102;-35
2021/10/25 12:11:44;;;;;;;0.98;0.90;;;;;;;;;;5071070;28;20039;-35
2021/10/25 12:14:12;;;;;;;1.48;0.90;;;;;;;;;;5062095;28;20043;-35
2021/10/25 12:16:45;;;;;;;0.85;0.85;;;;;;;;;;5065004;28;20041;-35
2021/10/25 12:19:12;;;;;;;0.93;0.75;;;;;;;;;;5066396;28;20435;-34
2021/10/25 12:21:39;;;;;;;0.82;0.80;;;;;;;;;;5062204;28;20444;-34
2021/10/25 12:24:09;;;;;;;0.80;0.80;;;;;;;;;;5069778;28;20563;-35
2021/10/25 12:26:37;;;;;;;1.17;0.93;;;;;;;;;;5070344;28;20045;-35
2021/10/25 12:29:31;;;;;;;1.80;0.90;;;;;;;;;;5060229;28;20045;-34
2021/10/25 12:32:06;;;;;;;1.63;0.85;;;;;;;;;;5066472;28;20049;-34
2021/10/25 12:34:46;;;;;;;2.30;0.90;;;;;;;;;;5057546;28;20043;-35
2021/10/25 12:37:20;;;;;;;2.25;1.20;;;;;;;;;;5063515;28;20523;-34
2021/10/25 12:39:46;;;;;;;0.90;0.90;;;;;;;;;;5070967;28;20028;-34
2021/10/25 12:42:14;;;;;;;1.25;0.80;;;;;;;;;;5057004;28;20036;-34
2021/10/25 12:44:44;;;;;;;0.85;0.85;;;;;;;;;;5065807;28;20128;-35
2021/10/25 12:47:12;;;;;;;1.58;0.90;;;;;;;;;;5070923;28;20041;-35
2021/10/25 12:49:39;;;;;;;0.80;0.80;;;;;;;;;;5058511;28;20071;-35
2021/10/25 12:52:08;;;;;;;1.02;0.95;;;;;;;;;;5066201;28;21628;-34
2021/10/25 12:54:36;;;;;;;0.80;0.80;;;;;;;;;;5054539;28;20048;-34
2021/10/25 12:57:14;;;;;;;3.03;0.90;;;;;;;;;;5064184;28;20110;-34
2021/10/25 12:59:41;;;;;;;1.52;0.80;;;;;;;;;;5067023;28;20040;-35
2021/10/25 13:02:09;;;;;;;1.65;0.90;;;;;;;;;;5060019;28;20095;-36
2021/10/25 13:04:38;;;;;;;2.67;1.70;;;;;;;;;;5066939;28;20045;-35
2021/10/25 13:07:13;;;;;;;3.40;0.80;;;;;;;;;;5058305;28;20052;-35
2021/10/25 13:09:52;;;;;;;1.00;0.90;;;;;;;;;;5071799;28;20119;-35
2021/10/25 13:12:19;;;;;;;1.85;0.90;;;;;;;;;;5069550;28;20068;-36
2021/10/25 13:14:47;;;;;;;0.90;0.90;;;;;;;;;;5069176;28;20047;-37
2021/10/25 13:17:34;;;;;;;1.23;1.20;;;;;;;;;;5064394;28;20131;-35
2021/10/25 13:20:00;;;;;;;0.95;0.90;;;;;;;;;;5065766;28;20037;-36
2021/10/25 13:22:29;;;;;;;1.25;0.98;;;;;;;;;;5053564;28;20091;-36
2021/10/25 13:24:57;;;;;;;5.50;2.45;;;;;;;;;;5063664;28;20040;-35
2021/10/25 13:27:24;;;;;;;0.82;0.82;;;;;;;;;;5060219;28;20036;-36
2021/10/25 13:29:51;;;;;;;4.13;0.90;;;;;;;;;;5070046;28;20412;-36
2021/10/25 13:32:19;;;;;;;1.00;0.90;;;;;;;;;;5069234;28;20113;-36
2021/10/25 13:34:46;;;;;;;0.80;0.80;;;;;;;;;;5070536;28;20880;-35
2021/10/25 13:37:12;;;;;;;0.90;0.90;;;;;;;;;;5062545;28;20037;-35
2021/10/25 13:39:39;;;;;;;1.17;1.00;;;;;;;;;;5058491;28;20048;-36
2021/10/25 13:42:06;;;;;;;1.92;0.90;;;;;;;;;;5071378;28;20044;-35
2021/10/25 13:44:33;;;;;;;2.70;1.02;;;;;;;;;;5066980;28;20067;-36
2021/10/25 13:47:00;;;;;;;2.47;0.90;;;;;;;;;;5061529;28;20049;-36
2021/10/25 13:49:26;;;;;;;0.98;0.80;;;;;;;;;;5065195;28;20045;-35
2021/10/25 13:51:53;;;;;;;0.80;0.80;;;;;;;;;;5061811;28;20024;-36
2021/10/25 13:54:20;;;;;;;1.95;0.80;;;;;;;;;;5054275;28;20047;-36
2021/10/25 13:56:46;;;;;;;1.10;0.90;;;;;;;;;;5065532;28;20043;-35
2021/10/25 13:59:13;;;;;;;1.73;0.90;;;;;;;;;;5058051;28;20508;-35
2021/10/25 14:01:40;;;;;;;0.80;0.80;;;;;;;;;;5061833;28;20047;-36
2021/10/25 14:04:10;;;;;;;2.95;1.40;;;;;;;;;;5070424;28;20045;-36
2021/10/25 14:06:37;;;;;;;2.22;1.10;;;;;;;;;;5070756;28;20048;-35
2021/10/25 14:09:03;;;;;;;0.90;0.90;;;;;;;;;;5069911;28;20123;-35
2021/10/25 14:11:37;;;;;;;2.35;0.90;;;;;;;;;;5069235;28;20055;-35
2021/10/25 14:16:35;;;;;;;1.67;1.10;;;;;;;;;;5063567;28;20079;-35
2021/10/25 14:19:03;;;;;;;1.15;1.00;;;;;;;;;;5069795;28;20047;-35
2021/10/25 14:21:34;;;;;;;4.32;0.90;;;;;;;;;;5068734;28;20036;-35
2021/10/25 14:24:01;;;;;;;1.60;1.42;;;;;;;;;;5068715;28;20043;-35
2021/10/25 14:26:28;;;;;;;1.77;1.08;;;;;;;;;;5056124;28;20044;-35
2021/10/25 14:28:55;;;;;;;1.23;0.95;;;;;;;;;;5065212;28;20049;-35
2021/10/25 14:31:22;;;;;;;1.15;0.90;;;;;;;;;;5059057;28;20059;-39
2021/10/25 14:33:51;;;;;;;1.75;1.00;;;;;;;;;;5060222;28;20033;-35
2021/10/25 14:36:19;;;;;;;2.70;1.00;;;;;;;;;;5061480;28;20038;-35
2021/10/25 14:39:08;;;;;;;1.00;1.00;;;;;;;;;;5053252;28;20079;-34
2021/10/25 14:41:50;;;;;;;1.10;1.10;;;;;;;;;;5063999;28;20052;-35
2021/10/25 14:54:53;;;;;;;1.35;1.10;;;;;;;;;;5054910;28;20040;-35
2021/10/25 14:57:24;;;;;;;6.13;1.42;;;;;;;;;;5073063;28;20036;-36
2021/10/25 14:59:52;;;;;;;1.75;1.25;;;;;;;;;;5071752;28;20382;-35
2021/10/25 15:02:20;;;;;;;1.08;1.00;;;;;;;;;;5074948;28;20063;-35
2021/10/25 15:04:49;;;;;;;1.77;1.08;;;;;;;;;;5072973;28;20071;-36
2021/10/25 15:07:21;;;;;;;2.03;1.60;;;;;;;;;;5056753;28;20123;-35
2021/10/25 15:09:50;;;;;;;1.98;1.25;;;;;;;;;;5067449;28;20049;-36
2021/10/25 15:12:20;;;;;;;2.80;1.10;;;;;;;;;;5061090;28;20032;-35
2021/10/25 15:14:50;;;;;;;2.65;1.65;;;;;;;;;;5075202;28;20036;-35
2021/10/25 15:17:17;;;;;;;5.45;1.73;;;;;;;;;;5070083;28;20033;-35
2021/10/25 15:19:44;;;;;;;2.00;1.40;;;;;;;;;;5071464;28;20380;-35
2021/10/25 15:22:13;;;;;;;5.45;1.40;;;;;;;;;;5064669;28;20075;-35
2021/10/25 15:24:43;;;;;;;6.82;2.10;;;;;;;;;;5061307;28;20049;-35
2021/10/25 15:27:16;;;;;;;1.50;1.40;;;;;;;;;;5072784;28;20045;-35
2021/10/25 15:29:43;;;;;;;;;;;;;;;;;;5071074;28;20041;-35
2021/10/25 15:32:13;;;;;;;2.55;1.20;;;;;;;;;;5072012;28;20392;-34
2021/10/25 15:34:43;;;;;;;2.60;1.33;;;;;;;;;;5066804;28;20128;-35
2021/10/25 15:37:13;;;;;;;1.90;1.58;;;;;;;;;;5070310;28;20036;-36
2021/10/25 15:39:40;;;;;;;1.73;1.60;;;;;;;;;;5072203;28;20373;-35
2021/10/25 15:42:07;;;;;;;1.92;1.25;;;;;;;;;;5073776;28;20177;-34
2021/10/25 15:44:34;;;;;;;1.60;1.50;;;;;;;;;;5072541;28;20044;-35
2021/10/25 15:47:02;;;;;;;3.83;1.77;;;;;;;;;;5061662;28;20079;-34
2021/10/25 15:49:29;;;;;;;2.22;1.40;;;;;;;;;;5071422;28;20393;-35
2021/10/25 15:51:56;;;;;;;2.97;1.70;;;;;;;;;;5059389;28;20469;-34
2021/10/25 15:54:23;;;;;;;2.20;1.60;;;;;;;;;;5072469;28;20033;-35
2021/10/25 15:56:51;;;;;;;1.83;1.55;;;;;;;;;;5071417;28;20049;-35
2021/10/25 15:59:18;;;;;;;1.58;1.48;;;;;;;;;;5059226;28;20119;-36
2021/10/25 16:02:00;;;;;;;3.70;2.35;;;;;;;;;;5071239;28;20400;-35
2021/10/25 16:04:27;;;;;;;2.92;2.67;;;;;;;;;;5065360;28;20040;-36
2021/10/25 16:06:54;;;;;;;3.72;3.40;;;;;;;;;;5063853;28;20076;-34
2021/10/25 16:09:21;;;;;;;1.98;1.77;;;;;;;;;;5064913;28;20060;-35
2021/10/25 16:11:49;;;;;;;1.58;1.48;;;;;;;;;;5074170;28;20060;-35
2021/10/25 16:14:16;;;;;;;2.63;2.50;;;;;;;;;;5071284;28;20033;-35
2021/10/25 16:16:43;;;;;;;3.15;2.85;;;;;;;;;;5071055;28;20086;-35
2021/10/25 16:19:10;;;;;;;3.33;2.20;;;;;;;;;;5062746;28;20123;-35
2021/10/25 16:21:37;;;;;;;7.00;2.53;;;;;;;;;;5071457;28;20098;-34
2021/10/25 16:24:04;;;;;;;2.72;2.28;;;;;;;;;;5072581;28;20403;-35
2021/10/25 16:26:31;;;;;;;3.58;2.85;;;;;;;;;;5073226;28;20044;-35
2021/10/25 16:28:58;;;;;;;2.55;2.35;;;;;;;;;;5072994;28;20044;-35
2021/10/25 16:31:24;;;;;;;4.50;3.20;;;;;;;;;;5067848;28;20135;-35
2021/10/25 16:33:51;;;;;;;3.65;3.45;;;;;;;;;;5065525;28;20388;-34
2021/10/25 16:36:18;;;;;;;3.90;2.28;;;;;;;;;;5080585;28;20519;-35
2021/10/25 16:38:45;;;;;;;3.88;3.58;;;;;;;;;;5068624;28;20476;-35
2021/10/25 16:41:11;;;;;;;3.97;3.85;;;;;;;;;;5066108;28;20109;-35
2021/10/25 16:43:38;;;;;;;4.60;4.35;;;;;;;;;;5066690;28;20041;-35
2021/10/25 16:46:07;;;;;;;5.57;5.10;;;;;;;;;;5065755;28;20036;-35
2021/10/25 16:48:37;;;;;;;3.95;3.65;;;;;;;;;;5061655;28;20106;-36